sensor_id;sensor_type;location;lat;lon;timestamp;P1;durP1;ratioP1;P2;durP2;ratioP2
572;SDS011;271;51.114;13.780;2023-12-20T00:00:06;18.50;;;3.90;;
572;SDS011;271;51.114;13.780;2023-12-20T00:02:55;20.00;;;4.63;;
572;SDS011;271;51.114;13.780;2023-12-20T00:05:44;20.08;;;4.72;;
572;SDS011;271;51.114;13.780;2023-12-20T00:08:31;19.77;;;4.47;;
572;SDS011;271;51.114;13.780;2023-12-20T00:11:19;20.98;;;4.65;;
572;SDS011;271;51.114;13.780;2023-12-20T00:14:07;19.20;;;3.97;;
572;SDS011;271;51.114;13.780;2023-12-20T00:16:54;19.50;;;4.07;;
572;SDS011;271;51.114;13.780;2023-12-20T00:19:42;20.08;;;4.05;;
572;SDS011;271;51.114;13.780;2023-12-20T00:22:31;19.38;;;4.40;;
572;SDS011;271;51.114;13.780;2023-12-20T00:25:18;19.20;;;4.38;;
572;SDS011;271;51.114;13.780;2023-12-20T00:28:06;20.75;;;5.15;;
572;SDS011;271;51.114;13.780;2023-12-20T00:30:54;18.90;;;3.92;;
572;SDS011;271;51.114;13.780;2023-12-20T00:33:42;19.33;;;4.05;;
572;SDS011;271;51.114;13.780;2023-12-20T00:36:29;19.40;;;4.10;;
572;SDS011;271;51.114;13.780;2023-12-20T00:39:18;19.23;;;3.90;;
572;SDS011;271;51.114;13.780;2023-12-20T00:42:06;19.20;;;4.10;;
572;SDS011;271;51.114;13.780;2023-12-20T00:44:54;19.90;;;3.83;;
572;SDS011;271;51.114;13.780;2023-12-20T00:47:41;19.20;;;4.00;;
572;SDS011;271;51.114;13.780;2023-12-20T00:50:29;18.13;;;3.35;;
572;SDS011;271;51.114;13.780;2023-12-20T00:53:17;20.00;;;4.20;;
572;SDS011;271;51.114;13.780;2023-12-20T00:56:06;18.02;;;3.28;;
572;SDS011;271;51.114;13.780;2023-12-20T00:58:54;17.95;;;3.42;;
572;SDS011;271;51.114;13.780;2023-12-20T01:01:41;18.60;;;3.00;;
572;SDS011;271;51.114;13.780;2023-12-20T01:04:29;18.70;;;3.15;;
572;SDS011;271;51.114;13.780;2023-12-20T01:07:17;17.30;;;2.90;;
572;SDS011;271;51.114;13.780;2023-12-20T01:10:04;18.08;;;3.15;;
572;SDS011;271;51.114;13.780;2023-12-20T01:12:54;18.70;;;3.15;;
572;SDS011;271;51.114;13.780;2023-12-20T01:15:42;17.63;;;2.55;;
572;SDS011;271;51.114;13.780;2023-12-20T01:18:29;18.30;;;3.10;;
572;SDS011;271;51.114;13.780;2023-12-20T01:21:17;17.60;;;2.90;;
572;SDS011;271;51.114;13.780;2023-12-20T01:24:05;19.00;;;3.13;;
572;SDS011;271;51.114;13.780;2023-12-20T01:26:52;18.25;;;3.10;;
572;SDS011;271;51.114;13.780;2023-12-20T01:29:41;16.85;;;2.35;;
572;SDS011;271;51.114;13.780;2023-12-20T01:32:29;18.40;;;2.78;;
572;SDS011;271;51.114;13.780;2023-12-20T01:35:16;19.30;;;2.92;;
572;SDS011;271;51.114;13.780;2023-12-20T01:38:04;17.35;;;2.75;;
572;SDS011;271;51.114;13.780;2023-12-20T01:40:52;17.20;;;2.80;;
572;SDS011;271;51.114;13.780;2023-12-20T01:43:40;17.38;;;2.47;;
572;SDS011;271;51.114;13.780;2023-12-20T01:46:29;17.70;;;2.47;;
572;SDS011;271;51.114;13.780;2023-12-20T01:49:17;16.80;;;2.15;;
572;SDS011;271;51.114;13.780;2023-12-20T01:52:05;16.88;;;1.95;;
572;SDS011;271;51.114;13.780;2023-12-20T01:54:54;18.85;;;2.50;;
572;SDS011;271;51.114;13.780;2023-12-20T01:57:48;17.23;;;2.45;;
572;SDS011;271;51.114;13.780;2023-12-20T02:00:36;16.67;;;2.13;;
572;SDS011;271;51.114;13.780;2023-12-20T02:03:25;16.95;;;2.55;;
572;SDS011;271;51.114;13.780;2023-12-20T02:06:13;17.23;;;2.30;;
572;SDS011;271;51.114;13.780;2023-12-20T02:09:01;17.15;;;2.28;;
572;SDS011;271;51.114;13.780;2023-12-20T02:11:49;16.80;;;1.80;;
572;SDS011;271;51.114;13.780;2023-12-20T02:14:37;16.70;;;1.80;;
572;SDS011;271;51.114;13.780;2023-12-20T02:17:25;16.65;;;1.70;;
572;SDS011;271;51.114;13.780;2023-12-20T02:20:15;16.30;;;1.55;;
572;SDS011;271;51.114;13.780;2023-12-20T02:23:04;16.60;;;1.85;;
572;SDS011;271;51.114;13.780;2023-12-20T02:25:52;17.15;;;1.98;;
572;SDS011;271;51.114;13.780;2023-12-20T02:28:40;16.33;;;1.58;;
572;SDS011;271;51.114;13.780;2023-12-20T02:31:27;16.25;;;1.40;;
572;SDS011;271;51.114;13.780;2023-12-20T02:34:15;15.95;;;1.58;;
572;SDS011;271;51.114;13.780;2023-12-20T02:37:03;16.50;;;1.70;;
572;SDS011;271;51.114;13.780;2023-12-20T02:39:52;16.85;;;1.42;;
572;SDS011;271;51.114;13.780;2023-12-20T02:42:39;16.35;;;1.42;;
572;SDS011;271;51.114;13.780;2023-12-20T02:45:27;16.05;;;1.55;;
572;SDS011;271;51.114;13.780;2023-12-20T02:48:15;16.23;;;1.50;;
572;SDS011;271;51.114;13.780;2023-12-20T02:51:02;16.33;;;1.58;;
572;SDS011;271;51.114;13.780;2023-12-20T02:53:50;16.50;;;1.65;;
572;SDS011;271;51.114;13.780;2023-12-20T02:56:39;16.45;;;1.70;;
572;SDS011;271;51.114;13.780;2023-12-20T02:59:27;16.58;;;1.50;;
572;SDS011;271;51.114;13.780;2023-12-20T03:02:15;16.05;;;1.48;;
572;SDS011;271;51.114;13.780;2023-12-20T03:05:02;16.48;;;1.60;;
572;SDS011;271;51.114;13.780;2023-12-20T03:07:50;15.95;;;1.30;;
572;SDS011;271;51.114;13.780;2023-12-20T03:10:38;16.80;;;1.95;;
572;SDS011;271;51.114;13.780;2023-12-20T03:13:27;16.05;;;1.45;;
572;SDS011;271;51.114;13.780;2023-12-20T03:16:15;15.98;;;1.30;;
572;SDS011;271;51.114;13.780;2023-12-20T03:19:02;16.80;;;1.83;;
572;SDS011;271;51.114;13.780;2023-12-20T03:21:50;16.20;;;1.55;;
572;SDS011;271;51.114;13.780;2023-12-20T03:24:39;16.08;;;1.40;;
572;SDS011;271;51.114;13.780;2023-12-20T03:27:27;16.58;;;1.60;;
572;SDS011;271;51.114;13.780;2023-12-20T03:30:16;16.33;;;1.40;;
572;SDS011;271;51.114;13.780;2023-12-20T03:33:03;16.40;;;1.63;;
572;SDS011;271;51.114;13.780;2023-12-20T03:35:51;16.17;;;1.45;;
572;SDS011;271;51.114;13.780;2023-12-20T03:38:39;16.08;;;1.25;;
572;SDS011;271;51.114;13.780;2023-12-20T03:41:27;16.40;;;1.50;;
572;SDS011;271;51.114;13.780;2023-12-20T03:44:14;16.00;;;1.15;;
572;SDS011;271;51.114;13.780;2023-12-20T03:47:04;16.13;;;1.40;;
572;SDS011;271;51.114;13.780;2023-12-20T03:49:51;16.42;;;1.50;;
572;SDS011;271;51.114;13.780;2023-12-20T03:52:39;15.93;;;1.50;;
572;SDS011;271;51.114;13.780;2023-12-20T03:55:27;16.08;;;1.23;;
572;SDS011;271;51.114;13.780;2023-12-20T03:58:15;16.88;;;1.67;;
572;SDS011;271;51.114;13.780;2023-12-20T04:01:03;17.85;;;1.70;;
572;SDS011;271;51.114;13.780;2023-12-20T04:03:52;17.13;;;1.80;;
572;SDS011;271;51.114;13.780;2023-12-20T04:06:39;16.20;;;1.40;;
572;SDS011;271;51.114;13.780;2023-12-20T04:09:27;15.98;;;1.40;;
572;SDS011;271;51.114;13.780;2023-12-20T04:12:15;16.42;;;1.80;;
572;SDS011;271;51.114;13.780;2023-12-20T04:15:03;16.20;;;1.50;;
572;SDS011;271;51.114;13.780;2023-12-20T04:17:54;16.25;;;1.30;;
572;SDS011;271;51.114;13.780;2023-12-20T04:20:43;16.42;;;1.65;;
572;SDS011;271;51.114;13.780;2023-12-20T04:23:31;16.00;;;1.40;;
572;SDS011;271;51.114;13.780;2023-12-20T04:26:19;16.65;;;1.55;;
572;SDS011;271;51.114;13.780;2023-12-20T04:29:07;16.45;;;1.80;;
572;SDS011;271;51.114;13.780;2023-12-20T04:31:54;16.35;;;1.40;;
572;SDS011;271;51.114;13.780;2023-12-20T04:34:42;15.95;;;1.30;;
572;SDS011;271;51.114;13.780;2023-12-20T04:37:31;16.50;;;1.58;;
572;SDS011;271;51.114;13.780;2023-12-20T04:40:19;16.25;;;1.30;;
572;SDS011;271;51.114;13.780;2023-12-20T04:43:06;16.38;;;1.45;;
572;SDS011;271;51.114;13.780;2023-12-20T04:45:54;16.42;;;1.60;;
572;SDS011;271;51.114;13.780;2023-12-20T04:48:42;16.20;;;1.50;;
572;SDS011;271;51.114;13.780;2023-12-20T04:51:29;16.58;;;1.95;;
572;SDS011;271;51.114;13.780;2023-12-20T04:54:21;16.90;;;1.70;;
572;SDS011;271;51.114;13.780;2023-12-20T04:57:09;16.10;;;1.67;;
572;SDS011;271;51.114;13.780;2023-12-20T04:59:57;16.38;;;1.40;;
572;SDS011;271;51.114;13.780;2023-12-20T05:02:44;16.25;;;1.50;;
572;SDS011;271;51.114;13.780;2023-12-20T05:05:33;15.93;;;1.50;;
572;SDS011;271;51.114;13.780;2023-12-20T05:08:20;16.05;;;1.45;;
572;SDS011;271;51.114;13.780;2023-12-20T05:11:09;17.15;;;1.70;;
572;SDS011;271;51.114;13.780;2023-12-20T05:13:59;16.67;;;1.70;;
572;SDS011;271;51.114;13.780;2023-12-20T05:16:46;16.25;;;1.55;;
572;SDS011;271;51.114;13.780;2023-12-20T05:19:34;16.80;;;1.83;;
572;SDS011;271;51.114;13.780;2023-12-20T05:22:22;16.08;;;1.65;;
572;SDS011;271;51.114;13.780;2023-12-20T05:25:09;16.85;;;1.75;;
572;SDS011;271;51.114;13.780;2023-12-20T05:27:58;17.40;;;2.40;;
572;SDS011;271;51.114;13.780;2023-12-20T05:30:46;16.30;;;1.80;;
572;SDS011;271;51.114;13.780;2023-12-20T05:33:34;16.25;;;1.65;;
572;SDS011;271;51.114;13.780;2023-12-20T05:36:22;16.55;;;1.85;;
572;SDS011;271;51.114;13.780;2023-12-20T05:39:09;16.27;;;1.45;;
572;SDS011;271;51.114;13.780;2023-12-20T05:41:57;16.05;;;1.40;;
572;SDS011;271;51.114;13.780;2023-12-20T05:44:47;16.25;;;1.60;;
572;SDS011;271;51.114;13.780;2023-12-20T05:47:34;16.80;;;1.65;;
572;SDS011;271;51.114;13.780;2023-12-20T05:50:22;16.45;;;1.98;;
572;SDS011;271;51.114;13.780;2023-12-20T05:53:10;16.70;;;1.90;;
572;SDS011;271;51.114;13.780;2023-12-20T05:55:57;16.05;;;1.52;;
572;SDS011;271;51.114;13.780;2023-12-20T05:58:45;16.25;;;1.70;;
572;SDS011;271;51.114;13.780;2023-12-20T06:01:34;16.60;;;1.35;;
572;SDS011;271;51.114;13.780;2023-12-20T06:04:22;16.15;;;1.45;;
572;SDS011;271;51.114;13.780;2023-12-20T06:07:11;16.05;;;1.60;;
572;SDS011;271;51.114;13.780;2023-12-20T06:09:58;17.30;;;1.48;;
572;SDS011;271;51.114;13.780;2023-12-20T06:12:46;21.50;;;1.77;;
572;SDS011;271;51.114;13.780;2023-12-20T06:15:36;16.13;;;1.65;;
572;SDS011;271;51.114;13.780;2023-12-20T06:18:25;16.23;;;1.60;;
572;SDS011;271;51.114;13.780;2023-12-20T06:21:12;16.70;;;1.50;;
572;SDS011;271;51.114;13.780;2023-12-20T06:24:19;16.58;;;2.00;;
572;SDS011;271;51.114;13.780;2023-12-20T06:30:15;18.40;;;1.92;;
572;SDS011;271;51.114;13.780;2023-12-20T06:33:04;16.30;;;2.00;;
572;SDS011;271;51.114;13.780;2023-12-20T06:35:53;16.42;;;2.30;;
572;SDS011;271;51.114;13.780;2023-12-20T06:38:41;17.30;;;2.47;;
572;SDS011;271;51.114;13.780;2023-12-20T06:41:29;16.88;;;2.22;;
572;SDS011;271;51.114;13.780;2023-12-20T06:44:17;17.33;;;2.60;;
572;SDS011;271;51.114;13.780;2023-12-20T06:47:04;17.80;;;3.17;;
572;SDS011;271;51.114;13.780;2023-12-20T06:49:52;17.75;;;3.33;;
572;SDS011;271;51.114;13.780;2023-12-20T06:52:41;18.25;;;3.40;;
572;SDS011;271;51.114;13.780;2023-12-20T06:55:29;17.90;;;3.40;;
572;SDS011;271;51.114;13.780;2023-12-20T06:58:17;18.25;;;3.22;;
572;SDS011;271;51.114;13.780;2023-12-20T07:01:04;17.45;;;2.58;;
572;SDS011;271;51.114;13.780;2023-12-20T07:03:52;17.77;;;3.10;;
572;SDS011;271;51.114;13.780;2023-12-20T07:06:40;18.40;;;3.40;;
572;SDS011;271;51.114;13.780;2023-12-20T07:09:29;17.75;;;3.00;;
572;SDS011;271;51.114;13.780;2023-12-20T07:12:16;19.13;;;3.33;;
572;SDS011;271;51.114;13.780;2023-12-20T07:15:28;18.13;;;3.28;;
572;SDS011;271;51.114;13.780;2023-12-20T07:21:36;17.52;;;3.00;;
572;SDS011;271;51.114;13.780;2023-12-20T07:24:23;16.98;;;2.90;;
572;SDS011;271;51.114;13.780;2023-12-20T07:27:12;19.05;;;3.95;;
572;SDS011;271;51.114;13.780;2023-12-20T07:30:00;19.42;;;4.25;;
572;SDS011;271;51.114;13.780;2023-12-20T07:32:48;18.98;;;4.78;;
572;SDS011;271;51.114;13.780;2023-12-20T07:35:36;20.42;;;5.00;;
572;SDS011;271;51.114;13.780;2023-12-20T07:38:23;19.38;;;4.75;;
572;SDS011;271;51.114;13.780;2023-12-20T07:41:11;19.33;;;5.10;;
572;SDS011;271;51.114;13.780;2023-12-20T07:44:00;19.25;;;5.10;;
572;SDS011;271;51.114;13.780;2023-12-20T07:46:48;19.50;;;5.13;;
572;SDS011;271;51.114;13.780;2023-12-20T07:49:35;18.90;;;4.25;;
572;SDS011;271;51.114;13.780;2023-12-20T07:52:23;19.58;;;4.65;;
572;SDS011;271;51.114;13.780;2023-12-20T07:55:11;20.27;;;5.32;;
572;SDS011;271;51.114;13.780;2023-12-20T07:57:59;22.27;;;5.45;;
572;SDS011;271;51.114;13.780;2023-12-20T08:04:13;19.65;;;4.72;;
572;SDS011;271;51.114;13.780;2023-12-20T08:07:02;19.80;;;5.20;;
572;SDS011;271;51.114;13.780;2023-12-20T08:09:50;18.85;;;4.85;;
572;SDS011;271;51.114;13.780;2023-12-20T08:12:40;19.33;;;4.68;;
572;SDS011;271;51.114;13.780;2023-12-20T08:15:28;20.27;;;5.03;;
572;SDS011;271;51.114;13.780;2023-12-20T08:18:29;20.63;;;5.97;;
572;SDS011;271;51.114;13.780;2023-12-20T08:21:24;19.90;;;5.15;;
572;SDS011;271;51.114;13.780;2023-12-20T08:24:12;19.13;;;5.80;;
572;SDS011;271;51.114;13.780;2023-12-20T08:27:00;20.58;;;5.00;;
572;SDS011;271;51.114;13.780;2023-12-20T08:29:47;18.38;;;3.92;;
572;SDS011;271;51.114;13.780;2023-12-20T08:32:39;20.23;;;5.22;;
572;SDS011;271;51.114;13.780;2023-12-20T08:35:27;21.40;;;4.57;;
572;SDS011;271;51.114;13.780;2023-12-20T08:38:16;19.00;;;3.97;;
572;SDS011;271;51.114;13.780;2023-12-20T08:41:04;19.10;;;3.50;;
572;SDS011;271;51.114;13.780;2023-12-20T08:43:55;18.80;;;3.38;;
572;SDS011;271;51.114;13.780;2023-12-20T08:46:42;19.98;;;3.67;;
572;SDS011;271;51.114;13.780;2023-12-20T08:49:30;21.02;;;3.45;;
572;SDS011;271;51.114;13.780;2023-12-20T08:52:18;17.90;;;2.67;;
572;SDS011;271;51.114;13.780;2023-12-20T08:55:10;18.60;;;2.60;;
572;SDS011;271;51.114;13.780;2023-12-20T08:57:58;21.25;;;2.08;;
572;SDS011;271;51.114;13.780;2023-12-20T09:00:46;17.10;;;2.42;;
572;SDS011;271;51.114;13.780;2023-12-20T09:03:34;19.08;;;2.08;;
572;SDS011;271;51.114;13.780;2023-12-20T09:06:24;21.30;;;1.98;;
572;SDS011;271;51.114;13.780;2023-12-20T09:09:12;18.70;;;2.22;;
572;SDS011;271;51.114;13.780;2023-12-20T09:12:04;16.88;;;1.70;;
572;SDS011;271;51.114;13.780;2023-12-20T09:14:52;17.63;;;2.60;;
572;SDS011;271;51.114;13.780;2023-12-20T09:17:40;17.60;;;1.70;;
572;SDS011;271;51.114;13.780;2023-12-20T09:20:29;18.30;;;1.80;;
572;SDS011;271;51.114;13.780;2023-12-20T09:23:18;17.00;;;1.45;;
572;SDS011;271;51.114;13.780;2023-12-20T09:26:06;16.90;;;1.60;;
572;SDS011;271;51.114;13.780;2023-12-20T09:28:57;17.27;;;1.67;;
572;SDS011;271;51.114;13.780;2023-12-20T09:31:45;18.73;;;1.77;;
572;SDS011;271;51.114;13.780;2023-12-20T09:34:34;20.00;;;1.92;;
572;SDS011;271;51.114;13.780;2023-12-20T09:37:26;17.30;;;1.58;;
572;SDS011;271;51.114;13.780;2023-12-20T09:40:15;21.55;;;1.65;;
572;SDS011;271;51.114;13.780;2023-12-20T09:43:08;16.75;;;1.75;;
572;SDS011;271;51.114;13.780;2023-12-20T09:46:00;16.52;;;1.63;;
572;SDS011;271;51.114;13.780;2023-12-20T09:48:49;17.20;;;1.60;;
572;SDS011;271;51.114;13.780;2023-12-20T09:51:37;18.65;;;1.75;;
572;SDS011;271;51.114;13.780;2023-12-20T09:54:26;16.80;;;1.60;;
572;SDS011;271;51.114;13.780;2023-12-20T09:57:16;18.38;;;1.50;;
572;SDS011;271;51.114;13.780;2023-12-20T10:00:04;16.67;;;1.60;;
572;SDS011;271;51.114;13.780;2023-12-20T10:02:56;16.52;;;1.58;;
572;SDS011;271;51.114;13.780;2023-12-20T10:05:44;16.35;;;1.63;;
572;SDS011;271;51.114;13.780;2023-12-20T10:08:35;16.35;;;1.48;;
572;SDS011;271;51.114;13.780;2023-12-20T10:11:22;16.80;;;1.80;;
572;SDS011;271;51.114;13.780;2023-12-20T10:14:10;17.15;;;1.90;;
572;SDS011;271;51.114;13.780;2023-12-20T10:17:01;17.55;;;1.80;;
572;SDS011;271;51.114;13.780;2023-12-20T10:19:51;18.10;;;1.45;;
572;SDS011;271;51.114;13.780;2023-12-20T10:22:39;17.77;;;1.75;;
572;SDS011;271;51.114;13.780;2023-12-20T10:25:27;18.02;;;1.50;;
572;SDS011;271;51.114;13.780;2023-12-20T10:28:15;17.13;;;1.90;;
572;SDS011;271;51.114;13.780;2023-12-20T10:31:05;17.00;;;1.65;;
572;SDS011;271;51.114;13.780;2023-12-20T10:33:53;16.90;;;1.77;;
572;SDS011;271;51.114;13.780;2023-12-20T10:36:42;19.30;;;1.50;;
572;SDS011;271;51.114;13.780;2023-12-20T10:39:29;16.77;;;1.58;;
572;SDS011;271;51.114;13.780;2023-12-20T10:42:18;19.30;;;2.53;;
572;SDS011;271;51.114;13.780;2023-12-20T10:45:08;17.65;;;1.70;;
572;SDS011;271;51.114;13.780;2023-12-20T10:47:56;17.67;;;1.55;;
572;SDS011;271;51.114;13.780;2023-12-20T10:50:46;17.90;;;1.67;;
572;SDS011;271;51.114;13.780;2023-12-20T10:53:36;23.05;;;1.95;;
572;SDS011;271;51.114;13.780;2023-12-20T10:56:25;17.38;;;1.90;;
572;SDS011;271;51.114;13.780;2023-12-20T10:59:19;17.98;;;2.13;;
572;SDS011;271;51.114;13.780;2023-12-20T11:02:08;17.38;;;1.90;;
572;SDS011;271;51.114;13.780;2023-12-20T11:04:58;17.88;;;1.67;;
572;SDS011;271;51.114;13.780;2023-12-20T11:07:55;19.13;;;1.63;;
572;SDS011;271;51.114;13.780;2023-12-20T11:10:56;16.77;;;1.75;;
572;SDS011;271;51.114;13.780;2023-12-20T11:13:53;16.60;;;1.90;;
572;SDS011;271;51.114;13.780;2023-12-20T11:16:44;18.05;;;2.00;;
572;SDS011;271;51.114;13.780;2023-12-20T11:19:32;17.52;;;1.70;;
572;SDS011;271;51.114;13.780;2023-12-20T11:22:24;19.42;;;2.13;;
572;SDS011;271;51.114;13.780;2023-12-20T11:25:12;18.25;;;1.85;;
572;SDS011;271;51.114;13.780;2023-12-20T11:28:08;17.55;;;1.90;;
572;SDS011;271;51.114;13.780;2023-12-20T11:30:58;16.63;;;1.73;;
572;SDS011;271;51.114;13.780;2023-12-20T11:33:47;17.65;;;2.10;;
572;SDS011;271;51.114;13.780;2023-12-20T11:36:45;16.60;;;2.08;;
572;SDS011;271;51.114;13.780;2023-12-20T11:39:36;17.40;;;2.05;;
572;SDS011;271;51.114;13.780;2023-12-20T11:42:24;17.05;;;1.83;;
572;SDS011;271;51.114;13.780;2023-12-20T11:45:16;16.95;;;2.13;;
572;SDS011;271;51.114;13.780;2023-12-20T11:48:07;19.33;;;2.33;;
572;SDS011;271;51.114;13.780;2023-12-20T11:50:55;16.15;;;1.90;;
572;SDS011;271;51.114;13.780;2023-12-20T11:53:43;17.73;;;2.00;;
572;SDS011;271;51.114;13.780;2023-12-20T11:56:30;17.70;;;1.70;;
572;SDS011;271;51.114;13.780;2023-12-20T11:59:18;19.95;;;2.60;;
572;SDS011;271;51.114;13.780;2023-12-20T12:02:11;18.55;;;2.78;;
572;SDS011;271;51.114;13.780;2023-12-20T12:04:59;16.02;;;1.52;;
572;SDS011;271;51.114;13.780;2023-12-20T12:07:47;17.20;;;2.00;;
572;SDS011;271;51.114;13.780;2023-12-20T12:10:35;16.40;;;2.00;;
572;SDS011;271;51.114;13.780;2023-12-20T12:13:25;16.70;;;1.80;;
572;SDS011;271;51.114;13.780;2023-12-20T12:16:16;16.38;;;1.55;;
572;SDS011;271;51.114;13.780;2023-12-20T12:19:05;15.88;;;1.73;;
572;SDS011;271;51.114;13.780;2023-12-20T12:22:03;16.15;;;1.33;;
572;SDS011;271;51.114;13.780;2023-12-20T12:24:53;15.57;;;1.40;;
572;SDS011;271;51.114;13.780;2023-12-20T12:27:40;16.80;;;1.98;;
572;SDS011;271;51.114;13.780;2023-12-20T12:30:28;16.95;;;1.85;;
572;SDS011;271;51.114;13.780;2023-12-20T12:33:16;16.27;;;1.80;;
572;SDS011;271;51.114;13.780;2023-12-20T12:36:06;16.58;;;1.75;;
572;SDS011;271;51.114;13.780;2023-12-20T12:38:56;16.80;;;1.70;;
572;SDS011;271;51.114;13.780;2023-12-20T12:41:43;17.05;;;1.75;;
572;SDS011;271;51.114;13.780;2023-12-20T12:44:31;16.20;;;1.92;;
572;SDS011;271;51.114;13.780;2023-12-20T12:47:19;16.98;;;1.70;;
572;SDS011;271;51.114;13.780;2023-12-20T12:50:07;15.00;;;1.52;;
572;SDS011;271;51.114;13.780;2023-12-20T12:52:56;15.05;;;1.63;;
572;SDS011;271;51.114;13.780;2023-12-20T12:55:44;15.45;;;1.88;;
572;SDS011;271;51.114;13.780;2023-12-20T12:58:32;16.50;;;1.70;;
572;SDS011;271;51.114;13.780;2023-12-20T13:01:20;21.10;;;2.10;;
572;SDS011;271;51.114;13.780;2023-12-20T13:04:08;14.93;;;1.80;;
572;SDS011;271;51.114;13.780;2023-12-20T13:06:56;17.60;;;1.52;;
572;SDS011;271;51.114;13.780;2023-12-20T13:09:45;15.30;;;1.80;;
572;SDS011;271;51.114;13.780;2023-12-20T13:12:33;17.65;;;2.25;;
572;SDS011;271;51.114;13.780;2023-12-20T13:15:22;15.20;;;1.83;;
572;SDS011;271;51.114;13.780;2023-12-20T13:18:10;15.13;;;1.80;;
572;SDS011;271;51.114;13.780;2023-12-20T13:21:01;16.33;;;2.00;;
572;SDS011;271;51.114;13.780;2023-12-20T13:23:49;16.88;;;2.17;;
572;SDS011;271;51.114;13.780;2023-12-20T13:26:39;15.60;;;1.55;;
572;SDS011;271;51.114;13.780;2023-12-20T13:29:27;15.02;;;1.30;;
572;SDS011;271;51.114;13.780;2023-12-20T13:32:15;14.07;;;1.13;;
572;SDS011;271;51.114;13.780;2023-12-20T13:35:04;14.45;;;1.48;;
572;SDS011;271;51.114;13.780;2023-12-20T13:37:52;15.00;;;1.40;;
572;SDS011;271;51.114;13.780;2023-12-20T13:40:42;14.80;;;1.50;;
572;SDS011;271;51.114;13.780;2023-12-20T13:43:34;15.15;;;1.27;;
572;SDS011;271;51.114;13.780;2023-12-20T13:46:22;16.00;;;1.55;;
572;SDS011;271;51.114;13.780;2023-12-20T13:49:10;17.67;;;1.88;;
572;SDS011;271;51.114;13.780;2023-12-20T13:51:58;15.87;;;1.57;;
572;SDS011;271;51.114;13.780;2023-12-20T13:54:46;14.77;;;1.30;;
572;SDS011;271;51.114;13.780;2023-12-20T13:57:34;14.70;;;1.30;;
572;SDS011;271;51.114;13.780;2023-12-20T14:00:27;15.20;;;1.65;;
572;SDS011;271;51.114;13.780;2023-12-20T14:03:15;15.68;;;1.63;;
572;SDS011;271;51.114;13.780;2023-12-20T14:06:02;14.63;;;1.40;;
572;SDS011;271;51.114;13.780;2023-12-20T14:08:50;15.57;;;1.75;;
572;SDS011;271;51.114;13.780;2023-12-20T14:11:41;14.73;;;1.55;;
572;SDS011;271;51.114;13.780;2023-12-20T14:14:29;15.75;;;1.60;;
572;SDS011;271;51.114;13.780;2023-12-20T14:17:21;16.58;;;1.40;;
572;SDS011;271;51.114;13.780;2023-12-20T14:20:09;16.33;;;1.92;;
572;SDS011;271;51.114;13.780;2023-12-20T14:22:58;20.20;;;3.88;;
572;SDS011;271;51.114;13.780;2023-12-20T14:25:46;15.52;;;1.60;;
572;SDS011;271;51.114;13.780;2023-12-20T14:28:35;14.93;;;1.55;;
572;SDS011;271;51.114;13.780;2023-12-20T14:31:23;16.70;;;1.60;;
572;SDS011;271;51.114;13.780;2023-12-20T14:34:15;16.42;;;2.20;;
572;SDS011;271;51.114;13.780;2023-12-20T14:37:03;16.10;;;1.30;;
572;SDS011;271;51.114;13.780;2023-12-20T14:39:51;15.25;;;1.50;;
572;SDS011;271;51.114;13.780;2023-12-20T14:42:40;15.05;;;1.67;;
572;SDS011;271;51.114;13.780;2023-12-20T14:45:28;14.63;;;1.27;;
572;SDS011;271;51.114;13.780;2023-12-20T14:48:15;16.08;;;1.60;;
572;SDS011;271;51.114;13.780;2023-12-20T14:51:05;15.82;;;1.60;;
572;SDS011;271;51.114;13.780;2023-12-20T14:53:53;14.57;;;1.30;;
572;SDS011;271;51.114;13.780;2023-12-20T14:56:40;15.52;;;1.50;;
572;SDS011;271;51.114;13.780;2023-12-20T14:59:28;15.60;;;1.60;;
572;SDS011;271;51.114;13.780;2023-12-20T15:02:16;16.23;;;1.70;;
572;SDS011;271;51.114;13.780;2023-12-20T15:05:04;15.35;;;1.40;;
572;SDS011;271;51.114;13.780;2023-12-20T15:07:53;15.40;;;1.40;;
572;SDS011;271;51.114;13.780;2023-12-20T15:10:41;15.55;;;1.42;;
572;SDS011;271;51.114;13.780;2023-12-20T15:13:29;15.10;;;1.38;;
572;SDS011;271;51.114;13.780;2023-12-20T15:16:18;14.60;;;1.60;;
572;SDS011;271;51.114;13.780;2023-12-20T15:19:08;16.08;;;2.03;;
572;SDS011;271;51.114;13.780;2023-12-20T15:21:56;15.40;;;1.50;;
572;SDS011;271;51.114;13.780;2023-12-20T15:24:46;14.75;;;1.50;;
572;SDS011;271;51.114;13.780;2023-12-20T15:27:34;20.27;;;2.20;;
572;SDS011;271;51.114;13.780;2023-12-20T15:30:24;17.20;;;2.10;;
572;SDS011;271;51.114;13.780;2023-12-20T15:33:12;16.90;;;2.20;;
572;SDS011;271;51.114;13.780;2023-12-20T15:36:00;16.40;;;2.63;;
572;SDS011;271;51.114;13.780;2023-12-20T15:38:48;14.73;;;1.70;;
572;SDS011;271;51.114;13.780;2023-12-20T15:41:38;15.02;;;1.30;;
572;SDS011;271;51.114;13.780;2023-12-20T15:44:26;15.50;;;1.38;;
572;SDS011;271;51.114;13.780;2023-12-20T15:47:14;14.65;;;1.38;;
572;SDS011;271;51.114;13.780;2023-12-20T15:50:02;15.90;;;1.50;;
572;SDS011;271;51.114;13.780;2023-12-20T15:52:52;16.50;;;1.20;;
572;SDS011;271;51.114;13.780;2023-12-20T15:55:40;15.60;;;1.70;;
572;SDS011;271;51.114;13.780;2023-12-20T15:58:30;16.42;;;2.90;;
572;SDS011;271;51.114;13.780;2023-12-20T16:01:18;16.95;;;2.50;;
572;SDS011;271;51.114;13.780;2023-12-20T16:04:05;15.93;;;2.30;;
572;SDS011;271;51.114;13.780;2023-12-20T16:06:53;16.75;;;2.55;;
572;SDS011;271;51.114;13.780;2023-12-20T16:09:41;18.23;;;3.88;;
572;SDS011;271;51.114;13.780;2023-12-20T16:12:29;18.08;;;3.70;;
572;SDS011;271;51.114;13.780;2023-12-20T16:15:18;14.57;;;1.50;;
572;SDS011;271;51.114;13.780;2023-12-20T16:18:05;15.20;;;1.65;;
572;SDS011;271;51.114;13.780;2023-12-20T16:20:56;16.55;;;2.15;;
572;SDS011;271;51.114;13.780;2023-12-20T16:23:46;15.68;;;2.08;;
572;SDS011;271;51.114;13.780;2023-12-20T16:26:34;15.90;;;2.03;;
572;SDS011;271;51.114;13.780;2023-12-20T16:29:22;16.65;;;2.20;;
572;SDS011;271;51.114;13.780;2023-12-20T16:32:11;17.15;;;2.38;;
572;SDS011;271;51.114;13.780;2023-12-20T16:35:01;17.65;;;4.00;;
572;SDS011;271;51.114;13.780;2023-12-20T16:37:50;17.40;;;2.72;;
572;SDS011;271;51.114;13.780;2023-12-20T16:40:38;16.38;;;2.20;;
572;SDS011;271;51.114;13.780;2023-12-20T16:43:26;15.18;;;1.80;;
572;SDS011;271;51.114;13.780;2023-12-20T16:46:14;16.40;;;1.70;;
572;SDS011;271;51.114;13.780;2023-12-20T16:49:03;14.93;;;1.85;;
572;SDS011;271;51.114;13.780;2023-12-20T16:51:51;15.50;;;1.60;;
572;SDS011;271;51.114;13.780;2023-12-20T16:54:38;15.90;;;1.80;;
572;SDS011;271;51.114;13.780;2023-12-20T16:57:26;16.20;;;1.85;;
572;SDS011;271;51.114;13.780;2023-12-20T17:00:15;16.33;;;1.80;;
572;SDS011;271;51.114;13.780;2023-12-20T17:03:03;16.73;;;1.60;;
572;SDS011;271;51.114;13.780;2023-12-20T17:05:52;15.23;;;1.42;;
572;SDS011;271;51.114;13.780;2023-12-20T17:08:40;15.70;;;2.15;;
572;SDS011;271;51.114;13.780;2023-12-20T17:11:29;15.20;;;1.52;;
572;SDS011;271;51.114;13.780;2023-12-20T17:14:17;16.65;;;1.90;;
572;SDS011;271;51.114;13.780;2023-12-20T17:17:04;15.57;;;1.80;;
572;SDS011;271;51.114;13.780;2023-12-20T17:19:54;16.08;;;2.40;;
572;SDS011;271;51.114;13.780;2023-12-20T17:22:43;15.65;;;2.45;;
572;SDS011;271;51.114;13.780;2023-12-20T17:25:30;17.02;;;2.10;;
572;SDS011;271;51.114;13.780;2023-12-20T17:28:20;16.73;;;2.63;;
572;SDS011;271;51.114;13.780;2023-12-20T17:31:08;15.93;;;2.30;;
572;SDS011;271;51.114;13.780;2023-12-20T17:33:56;16.08;;;2.30;;
572;SDS011;271;51.114;13.780;2023-12-20T17:36:43;16.30;;;2.10;;